sensor_id;sensor_type;location;lat;lon;timestamp;P1;durP1;ratioP1;P2;durP2;ratioP2
39308;SDS011;26019;47.510;19.122;2022-08-19T00:01:46;17.30;;;8.90;;
39308;SDS011;26019;47.510;19.122;2022-08-19T00:11:53;9.13;;;8.15;;
39308;SDS011;26019;47.510;19.122;2022-08-19T00:21:57;16.67;;;8.93;;
39308;SDS011;26019;47.510;19.122;2022-08-19T00:31:58;9.82;;;8.77;;
39308;SDS011;26019;47.510;19.122;2022-08-19T00:42:01;11.18;;;9.10;;
39308;SDS011;26019;47.510;19.122;2022-08-19T00:52:07;10.93;;;8.80;;
39308;SDS011;26019;47.510;19.122;2022-08-19T01:02:15;14.13;;;8.57;;
39308;SDS011;26019;47.510;19.122;2022-08-19T01:12:18;10.93;;;8.27;;
39308;SDS011;26019;47.510;19.122;2022-08-19T01:32:33;14.30;;;8.98;;
39308;SDS011;26019;47.510;19.122;2022-08-19T01:42:36;13.07;;;8.70;;
39308;SDS011;26019;47.510;19.122;2022-08-19T02:02:45;14.23;;;8.75;;
39308;SDS011;26019;47.510;19.122;2022-08-19T02:12:47;13.30;;;8.20;;
39308;SDS011;26019;47.510;19.122;2022-08-19T02:22:53;11.57;;;9.25;;
39308;SDS011;26019;47.510;19.122;2022-08-19T02:32:55;11.27;;;8.82;;
39308;SDS011;26019;47.510;19.122;2022-08-19T02:42:57;11.40;;;9.57;;
39308;SDS011;26019;47.510;19.122;2022-08-19T02:52:59;16.55;;;10.25;;
39308;SDS011;26019;47.510;19.122;2022-08-19T03:03:01;13.68;;;9.52;;
39308;SDS011;26019;47.510;19.122;2022-08-19T03:13:02;20.00;;;11.52;;
39308;SDS011;26019;47.510;19.122;2022-08-19T03:23:05;12.23;;;9.77;;
39308;SDS011;26019;47.510;19.122;2022-08-19T03:33:07;11.82;;;9.75;;
39308;SDS011;26019;47.510;19.122;2022-08-19T03:43:18;17.63;;;11.05;;
39308;SDS011;26019;47.510;19.122;2022-08-19T03:53:20;17.83;;;11.30;;
39308;SDS011;26019;47.510;19.122;2022-08-19T04:03:22;12.45;;;9.85;;
39308;SDS011;26019;47.510;19.122;2022-08-19T04:13:25;13.55;;;10.52;;
39308;SDS011;26019;47.510;19.122;2022-08-19T04:23:29;18.48;;;10.32;;
39308;SDS011;26019;47.510;19.122;2022-08-19T04:33:32;17.42;;;10.95;;
39308;SDS011;26019;47.510;19.122;2022-08-19T04:43:35;16.63;;;9.82;;
39308;SDS011;26019;47.510;19.122;2022-08-19T04:53:41;14.30;;;9.80;;
39308;SDS011;26019;47.510;19.122;2022-08-19T05:03:44;24.88;;;10.63;;
39308;SDS011;26019;47.510;19.122;2022-08-19T05:13:46;30.85;;;15.93;;
39308;SDS011;26019;47.510;19.122;2022-08-19T05:24:00;12.30;;;9.00;;
39308;SDS011;26019;47.510;19.122;2022-08-19T05:34:06;15.27;;;9.23;;
39308;SDS011;26019;47.510;19.122;2022-08-19T05:44:23;21.17;;;14.43;;
39308;SDS011;26019;47.510;19.122;2022-08-19T05:54:41;16.85;;;8.73;;
39308;SDS011;26019;47.510;19.122;2022-08-19T06:25:24;11.02;;;7.43;;
39308;SDS011;26019;47.510;19.122;2022-08-19T06:36:26;17.05;;;9.18;;
39308;SDS011;26019;47.510;19.122;2022-08-19T06:46:35;12.57;;;8.27;;
39308;SDS011;26019;47.510;19.122;2022-08-19T06:56:40;13.70;;;7.53;;
39308;SDS011;26019;47.510;19.122;2022-08-19T07:06:56;35.20;;;24.92;;
39308;SDS011;26019;47.510;19.122;2022-08-19T07:17:21;26.15;;;17.27;;
39308;SDS011;26019;47.510;19.122;2022-08-19T07:27:23;13.02;;;7.05;;
39308;SDS011;26019;47.510;19.122;2022-08-19T07:37:27;7.10;;;6.30;;
39308;SDS011;26019;47.510;19.122;2022-08-19T07:47:43;7.70;;;5.97;;
39308;SDS011;26019;47.510;19.122;2022-08-19T07:58:02;10.50;;;5.88;;
39308;SDS011;26019;47.510;19.122;2022-08-19T08:08:04;15.10;;;6.55;;
39308;SDS011;26019;47.510;19.122;2022-08-19T08:18:33;13.05;;;6.63;;
39308;SDS011;26019;47.510;19.122;2022-08-19T08:28:53;7.22;;;5.68;;
39308;SDS011;26019;47.510;19.122;2022-08-19T08:38:57;11.02;;;6.10;;
39308;SDS011;26019;47.510;19.122;2022-08-19T08:49:07;8.68;;;5.13;;
39308;SDS011;26019;47.510;19.122;2022-08-19T08:59:39;6.85;;;5.38;;
39308;SDS011;26019;47.510;19.122;2022-08-19T09:09:47;8.20;;;5.32;;
39308;SDS011;26019;47.510;19.122;2022-08-19T09:40:41;6.20;;;5.22;;
39308;SDS011;26019;47.510;19.122;2022-08-19T09:50:43;14.10;;;5.30;;
39308;SDS011;26019;47.510;19.122;2022-08-19T10:00:52;6.22;;;5.18;;
39308;SDS011;26019;47.510;19.122;2022-08-19T10:10:55;6.07;;;4.50;;
39308;SDS011;26019;47.510;19.122;2022-08-19T10:21:04;11.63;;;4.53;;
39308;SDS011;26019;47.510;19.122;2022-08-19T10:31:23;15.20;;;4.75;;
39308;SDS011;26019;47.510;19.122;2022-08-19T10:41:48;9.68;;;4.70;;
39308;SDS011;26019;47.510;19.122;2022-08-19T10:51:50;7.97;;;4.47;;
39308;SDS011;26019;47.510;19.122;2022-08-19T11:02:20;8.02;;;4.25;;
39308;SDS011;26019;47.510;19.122;2022-08-19T11:12:24;8.45;;;4.55;;
39308;SDS011;26019;47.510;19.122;2022-08-19T11:22:26;6.25;;;4.10;;
39308;SDS011;26019;47.510;19.122;2022-08-19T11:32:42;12.00;;;4.18;;
39308;SDS011;26019;47.510;19.122;2022-08-19T11:42:49;4.78;;;3.97;;
39308;SDS011;26019;47.510;19.122;2022-08-19T11:52:57;12.13;;;5.10;;
39308;SDS011;26019;47.510;19.122;2022-08-19T12:13:05;9.35;;;4.00;;
39308;SDS011;26019;47.510;19.122;2022-08-19T12:23:08;6.35;;;4.43;;
39308;SDS011;26019;47.510;19.122;2022-08-19T12:33:11;9.35;;;4.32;;
39308;SDS011;26019;47.510;19.122;2022-08-19T12:43:15;10.93;;;5.18;;
39308;SDS011;26019;47.510;19.122;2022-08-19T13:03:22;14.48;;;9.30;;
39308;SDS011;26019;47.510;19.122;2022-08-19T13:13:30;19.70;;;9.10;;
39308;SDS011;26019;47.510;19.122;2022-08-19T13:23:32;14.65;;;11.27;;
39308;SDS011;26019;47.510;19.122;2022-08-19T13:33:35;16.02;;;8.32;;
39308;SDS011;26019;47.510;19.122;2022-08-19T13:43:39;9.45;;;7.32;;
39308;SDS011;26019;47.510;19.122;2022-08-19T13:53:41;12.77;;;6.57;;
39308;SDS011;26019;47.510;19.122;2022-08-19T14:03:48;13.68;;;6.68;;
39308;SDS011;26019;47.510;19.122;2022-08-19T14:13:51;13.70;;;6.85;;
39308;SDS011;26019;47.510;19.122;2022-08-19T14:23:53;29.27;;;5.70;;
39308;SDS011;26019;47.510;19.122;2022-08-19T14:33:55;21.48;;;4.80;;
39308;SDS011;26019;47.510;19.122;2022-08-19T14:43:56;22.10;;;5.22;;
39308;SDS011;26019;47.510;19.122;2022-08-19T14:53:58;14.52;;;4.40;;
39308;SDS011;26019;47.510;19.122;2022-08-19T15:04:00;24.88;;;4.18;;
39308;SDS011;26019;47.510;19.122;2022-08-19T15:14:03;18.27;;;3.67;;
39308;SDS011;26019;47.510;19.122;2022-08-19T15:24:07;14.75;;;4.47;;
39308;SDS011;26019;47.510;19.122;2022-08-19T15:34:10;22.60;;;3.40;;
39308;SDS011;26019;47.510;19.122;2022-08-19T15:44:13;13.55;;;3.80;;
39308;SDS011;26019;47.510;19.122;2022-08-19T15:54:17;24.27;;;5.63;;
39308;SDS011;26019;47.510;19.122;2022-08-19T16:04:21;15.77;;;4.05;;
39308;SDS011;26019;47.510;19.122;2022-08-19T16:14:42;15.93;;;3.72;;
39308;SDS011;26019;47.510;19.122;2022-08-19T16:24:43;20.48;;;4.75;;
39308;SDS011;26019;47.510;19.122;2022-08-19T16:34:45;19.15;;;4.70;;
39308;SDS011;26019;47.510;19.122;2022-08-19T16:44:47;27.40;;;3.75;;
39308;SDS011;26019;47.510;19.122;2022-08-19T16:54:49;18.83;;;4.63;;
39308;SDS011;26019;47.510;19.122;2022-08-19T17:04:51;18.65;;;3.92;;
39308;SDS011;26019;47.510;19.122;2022-08-19T17:14:59;17.77;;;4.05;;
39308;SDS011;26019;47.510;19.122;2022-08-19T17:25:03;21.92;;;4.07;;
39308;SDS011;26019;47.510;19.122;2022-08-19T17:35:05;17.02;;;3.83;;
39308;SDS011;26019;47.510;19.122;2022-08-19T17:45:07;19.80;;;6.22;;
39308;SDS011;26019;47.510;19.122;2022-08-19T17:55:11;28.65;;;5.30;;
39308;SDS011;26019;47.510;19.122;2022-08-19T18:05:13;16.55;;;3.83;;
39308;SDS011;26019;47.510;19.122;2022-08-19T18:15:15;23.15;;;4.03;;
39308;SDS011;26019;47.510;19.122;2022-08-19T18:35:28;16.75;;;3.97;;
39308;SDS011;26019;47.510;19.122;2022-08-19T18:45:31;14.80;;;4.30;;
39308;SDS011;26019;47.510;19.122;2022-08-19T18:55:53;17.70;;;4.38;;
39308;SDS011;26019;47.510;19.122;2022-08-19T19:05:55;9.00;;;4.25;;
39308;SDS011;26019;47.510;19.122;2022-08-19T19:15:58;16.67;;;4.55;;
39308;SDS011;26019;47.510;19.122;2022-08-19T19:26:06;20.52;;;4.95;;
39308;SDS011;26019;47.510;19.122;2022-08-19T19:36:11;12.02;;;5.13;;
39308;SDS011;26019;47.510;19.122;2022-08-19T19:46:13;19.55;;;7.45;;
39308;SDS011;26019;47.510;19.122;2022-08-19T19:56:16;14.98;;;4.68;;
39308;SDS011;26019;47.510;19.122;2022-08-19T20:06:19;28.40;;;15.55;;
39308;SDS011;26019;47.510;19.122;2022-08-19T20:16:23;25.50;;;6.10;;
39308;SDS011;26019;47.510;19.122;2022-08-19T20:26:31;18.13;;;6.05;;
39308;SDS011;26019;47.510;19.122;2022-08-19T20:36:34;20.80;;;8.82;;
39308;SDS011;26019;47.510;19.122;2022-08-19T20:46:37;21.58;;;10.30;;
39308;SDS011;26019;47.510;19.122;2022-08-19T20:56:39;30.92;;;14.15;;
39308;SDS011;26019;47.510;19.122;2022-08-19T21:06:40;29.30;;;16.55;;
39308;SDS011;26019;47.510;19.122;2022-08-19T21:16:46;27.38;;;16.35;;
39308;SDS011;26019;47.510;19.122;2022-08-19T21:26:49;25.13;;;20.40;;
39308;SDS011;26019;47.510;19.122;2022-08-19T21:37:49;28.15;;;18.65;;
39308;SDS011;26019;47.510;19.122;2022-08-19T21:47:54;28.83;;;19.73;;
39308;SDS011;26019;47.510;19.122;2022-08-19T21:58:55;35.53;;;25.38;;
39308;SDS011;26019;47.510;19.122;2022-08-19T22:09:55;31.20;;;20.95;;
39308;SDS011;26019;47.510;19.122;2022-08-19T22:20:58;33.33;;;23.73;;
39308;SDS011;26019;47.510;19.122;2022-08-19T22:31:02;40.00;;;33.05;;
39308;SDS011;26019;47.510;19.122;2022-08-19T22:41:05;37.83;;;26.38;;
39308;SDS011;26019;47.510;19.122;2022-08-19T22:51:10;34.95;;;23.20;;
39308;SDS011;26019;47.510;19.122;2022-08-19T23:01:30;26.52;;;21.20;;
39308;SDS011;26019;47.510;19.122;2022-08-19T23:11:33;32.38;;;21.73;;
39308;SDS011;26019;47.510;19.122;2022-08-19T23:21:43;34.95;;;23.00;;
39308;SDS011;26019;47.510;19.122;2022-08-19T23:31:46;32.53;;;22.83;;
39308;SDS011;26019;47.510;19.122;2022-08-19T23:41:49;29.58;;;23.95;;
39308;SDS011;26019;47.510;19.122;2022-08-19T23:51:53;36.00;;;24.58;;
